sensor_id;sensor_type;location;lat;lon;timestamp;P1;durP1;ratioP1;P2;durP2;ratioP2
64459;SDS011;50828;53.756;21.140;2023-07-02T00:02:14;10.10;;;5.40;;
64459;SDS011;50828;53.756;21.140;2023-07-02T00:07:23;9.90;;;5.20;;
64459;SDS011;50828;53.756;21.140;2023-07-02T00:12:30;11.30;;;4.90;;
64459;SDS011;50828;53.756;21.140;2023-07-02T00:17:38;7.60;;;5.00;;
64459;SDS011;50828;53.756;21.140;2023-07-02T00:22:46;8.10;;;4.90;;
64459;SDS011;50828;53.756;21.140;2023-07-02T00:27:54;7.00;;;4.40;;
64459;SDS011;50828;53.756;21.140;2023-07-02T00:33:01;9.30;;;5.40;;
64459;SDS011;50828;53.756;21.140;2023-07-02T00:38:10;10.50;;;4.50;;
64459;SDS011;50828;53.756;21.140;2023-07-02T00:43:19;8.20;;;4.90;;
64459;SDS011;50828;53.756;21.140;2023-07-02T00:48:26;7.70;;;4.90;;
64459;SDS011;50828;53.756;21.140;2023-07-02T00:53:34;9.70;;;4.70;;
64459;SDS011;50828;53.756;21.140;2023-07-02T00:58:42;8.00;;;4.80;;
64459;SDS011;50828;53.756;21.140;2023-07-02T01:03:53;7.00;;;4.40;;
64459;SDS011;50828;53.756;21.140;2023-07-02T01:09:03;9.40;;;5.20;;
64459;SDS011;50828;53.756;21.140;2023-07-02T01:14:12;8.30;;;5.10;;
64459;SDS011;50828;53.756;21.140;2023-07-02T01:19:29;8.60;;;5.20;;
64459;SDS011;50828;53.756;21.140;2023-07-02T01:24:45;9.60;;;5.50;;
64459;SDS011;50828;53.756;21.140;2023-07-02T01:29:54;7.40;;;4.90;;
64459;SDS011;50828;53.756;21.140;2023-07-02T01:35:02;10.00;;;5.80;;
64459;SDS011;50828;53.756;21.140;2023-07-02T01:40:10;9.50;;;5.00;;
64459;SDS011;50828;53.756;21.140;2023-07-02T01:45:18;7.40;;;4.90;;
64459;SDS011;50828;53.756;21.140;2023-07-02T01:50:26;10.20;;;5.50;;
64459;SDS011;50828;53.756;21.140;2023-07-02T01:55:34;8.90;;;4.90;;
64459;SDS011;50828;53.756;21.140;2023-07-02T02:00:42;6.80;;;4.90;;
64459;SDS011;50828;53.756;21.140;2023-07-02T02:05:50;8.90;;;5.40;;
64459;SDS011;50828;53.756;21.140;2023-07-02T02:10:58;10.10;;;5.70;;
64459;SDS011;50828;53.756;21.140;2023-07-02T02:16:06;12.30;;;6.20;;
64459;SDS011;50828;53.756;21.140;2023-07-02T02:21:13;9.30;;;5.90;;
64459;SDS011;50828;53.756;21.140;2023-07-02T02:26:22;10.40;;;5.80;;
64459;SDS011;50828;53.756;21.140;2023-07-02T02:31:31;10.10;;;6.10;;
64459;SDS011;50828;53.756;21.140;2023-07-02T02:36:40;11.20;;;5.70;;
64459;SDS011;50828;53.756;21.140;2023-07-02T02:41:48;9.10;;;5.70;;
64459;SDS011;50828;53.756;21.140;2023-07-02T02:46:56;8.60;;;5.60;;
64459;SDS011;50828;53.756;21.140;2023-07-02T02:52:06;9.70;;;6.20;;
64459;SDS011;50828;53.756;21.140;2023-07-02T02:57:14;9.80;;;5.90;;
64459;SDS011;50828;53.756;21.140;2023-07-02T03:02:22;8.70;;;5.50;;
64459;SDS011;50828;53.756;21.140;2023-07-02T03:07:31;13.00;;;6.80;;
64459;SDS011;50828;53.756;21.140;2023-07-02T03:12:40;11.90;;;6.70;;
64459;SDS011;50828;53.756;21.140;2023-07-02T03:17:47;12.80;;;6.90;;
64459;SDS011;50828;53.756;21.140;2023-07-02T03:22:55;9.20;;;6.20;;
64459;SDS011;50828;53.756;21.140;2023-07-02T03:28:03;10.00;;;6.50;;
64459;SDS011;50828;53.756;21.140;2023-07-02T03:33:11;9.00;;;5.80;;
64459;SDS011;50828;53.756;21.140;2023-07-02T03:38:19;11.00;;;6.50;;
64459;SDS011;50828;53.756;21.140;2023-07-02T03:43:27;10.80;;;6.50;;
64459;SDS011;50828;53.756;21.140;2023-07-02T03:48:35;10.30;;;6.50;;
64459;SDS011;50828;53.756;21.140;2023-07-02T03:53:43;11.00;;;6.90;;
64459;SDS011;50828;53.756;21.140;2023-07-02T03:58:52;12.10;;;6.70;;
64459;SDS011;50828;53.756;21.140;2023-07-02T04:04:01;12.60;;;7.30;;
64459;SDS011;50828;53.756;21.140;2023-07-02T04:09:09;10.70;;;6.80;;
64459;SDS011;50828;53.756;21.140;2023-07-02T04:14:18;13.30;;;7.80;;
64459;SDS011;50828;53.756;21.140;2023-07-02T04:19:26;12.10;;;7.70;;
64459;SDS011;50828;53.756;21.140;2023-07-02T04:24:34;14.70;;;8.00;;
64459;SDS011;50828;53.756;21.140;2023-07-02T04:29:43;13.70;;;7.90;;
64459;SDS011;50828;53.756;21.140;2023-07-02T04:34:54;14.90;;;8.60;;
64459;SDS011;50828;53.756;21.140;2023-07-02T04:40:03;13.30;;;8.40;;
64459;SDS011;50828;53.756;21.140;2023-07-02T04:45:14;13.70;;;8.70;;
64459;SDS011;50828;53.756;21.140;2023-07-02T04:50:22;13.20;;;8.40;;
64459;SDS011;50828;53.756;21.140;2023-07-02T04:55:30;15.70;;;8.90;;
64459;SDS011;50828;53.756;21.140;2023-07-02T05:00:38;16.40;;;9.40;;
64459;SDS011;50828;53.756;21.140;2023-07-02T05:05:47;17.50;;;9.80;;
64459;SDS011;50828;53.756;21.140;2023-07-02T05:10:55;15.80;;;9.20;;
64459;SDS011;50828;53.756;21.140;2023-07-02T05:16:03;15.40;;;8.90;;
64459;SDS011;50828;53.756;21.140;2023-07-02T05:21:12;16.80;;;9.30;;
64459;SDS011;50828;53.756;21.140;2023-07-02T05:26:24;21.60;;;11.00;;
64459;SDS011;50828;53.756;21.140;2023-07-02T05:31:33;17.30;;;10.50;;
64459;SDS011;50828;53.756;21.140;2023-07-02T05:36:41;18.20;;;10.00;;
64459;SDS011;50828;53.756;21.140;2023-07-02T05:41:50;20.40;;;11.50;;
64459;SDS011;50828;53.756;21.140;2023-07-02T05:46:58;19.40;;;11.50;;
64459;SDS011;50828;53.756;21.140;2023-07-02T05:52:07;20.00;;;11.50;;
64459;SDS011;50828;53.756;21.140;2023-07-02T05:57:15;22.20;;;12.20;;
64459;SDS011;50828;53.756;21.140;2023-07-02T06:02:24;18.10;;;11.20;;
64459;SDS011;50828;53.756;21.140;2023-07-02T06:07:32;19.20;;;11.70;;
64459;SDS011;50828;53.756;21.140;2023-07-02T06:12:43;17.50;;;11.50;;
64459;SDS011;50828;53.756;21.140;2023-07-02T06:17:51;18.30;;;10.40;;
64459;SDS011;50828;53.756;21.140;2023-07-02T06:23:00;19.70;;;10.50;;
64459;SDS011;50828;53.756;21.140;2023-07-02T06:28:09;18.70;;;11.10;;
64459;SDS011;50828;53.756;21.140;2023-07-02T06:33:17;17.90;;;10.40;;
64459;SDS011;50828;53.756;21.140;2023-07-02T06:38:26;17.80;;;9.60;;
64459;SDS011;50828;53.756;21.140;2023-07-02T06:43:35;15.90;;;9.70;;
64459;SDS011;50828;53.756;21.140;2023-07-02T06:48:44;14.90;;;8.90;;
64459;SDS011;50828;53.756;21.140;2023-07-02T06:53:53;16.30;;;9.80;;
64459;SDS011;50828;53.756;21.140;2023-07-02T06:59:01;14.60;;;9.40;;
64459;SDS011;50828;53.756;21.140;2023-07-02T07:04:09;16.40;;;9.20;;
64459;SDS011;50828;53.756;21.140;2023-07-02T07:09:17;12.90;;;8.30;;
64459;SDS011;50828;53.756;21.140;2023-07-02T07:14:25;13.20;;;8.20;;
64459;SDS011;50828;53.756;21.140;2023-07-02T07:19:33;15.10;;;8.10;;
64459;SDS011;50828;53.756;21.140;2023-07-02T07:24:42;11.00;;;7.30;;
64459;SDS011;50828;53.756;21.140;2023-07-02T07:29:50;9.80;;;7.40;;
64459;SDS011;50828;53.756;21.140;2023-07-02T07:34:57;16.30;;;7.60;;
64459;SDS011;50828;53.756;21.140;2023-07-02T07:40:07;11.60;;;6.20;;
64459;SDS011;50828;53.756;21.140;2023-07-02T07:45:16;11.20;;;7.40;;
64459;SDS011;50828;53.756;21.140;2023-07-02T07:50:24;10.60;;;6.70;;
64459;SDS011;50828;53.756;21.140;2023-07-02T07:55:33;12.60;;;6.60;;
64459;SDS011;50828;53.756;21.140;2023-07-02T08:00:41;12.90;;;7.40;;
64459;SDS011;50828;53.756;21.140;2023-07-02T08:05:49;9.10;;;5.90;;
64459;SDS011;50828;53.756;21.140;2023-07-02T08:10:56;10.40;;;6.10;;
64459;SDS011;50828;53.756;21.140;2023-07-02T08:16:04;7.10;;;5.10;;
64459;SDS011;50828;53.756;21.140;2023-07-02T08:21:13;8.50;;;6.00;;
64459;SDS011;50828;53.756;21.140;2023-07-02T08:26:22;7.30;;;4.60;;
64459;SDS011;50828;53.756;21.140;2023-07-02T08:31:30;5.70;;;3.90;;
64459;SDS011;50828;53.756;21.140;2023-07-02T08:36:39;11.10;;;4.30;;
64459;SDS011;50828;53.756;21.140;2023-07-02T08:41:48;5.90;;;3.90;;
64459;SDS011;50828;53.756;21.140;2023-07-02T08:46:56;6.90;;;4.30;;
64459;SDS011;50828;53.756;21.140;2023-07-02T08:52:05;9.60;;;4.30;;
64459;SDS011;50828;53.756;21.140;2023-07-02T08:57:13;5.80;;;3.30;;
64459;SDS011;50828;53.756;21.140;2023-07-02T09:02:31;5.60;;;2.90;;
64459;SDS011;50828;53.756;21.140;2023-07-02T09:07:46;5.10;;;3.20;;
64459;SDS011;50828;53.756;21.140;2023-07-02T09:13:04;7.20;;;3.10;;
64459;SDS011;50828;53.756;21.140;2023-07-02T09:18:20;3.30;;;2.40;;
64459;SDS011;50828;53.756;21.140;2023-07-02T09:23:33;4.30;;;2.70;;
64459;SDS011;50828;53.756;21.140;2023-07-02T09:28:42;3.30;;;2.10;;
64459;SDS011;50828;53.756;21.140;2023-07-02T09:34:00;4.00;;;2.40;;
64459;SDS011;50828;53.756;21.140;2023-07-02T09:39:11;4.40;;;2.70;;
64459;SDS011;50828;53.756;21.140;2023-07-02T09:44:20;4.00;;;2.00;;
64459;SDS011;50828;53.756;21.140;2023-07-02T09:49:33;3.20;;;2.20;;
64459;SDS011;50828;53.756;21.140;2023-07-02T09:54:41;3.10;;;2.20;;
64459;SDS011;50828;53.756;21.140;2023-07-02T09:59:50;3.70;;;2.10;;
64459;SDS011;50828;53.756;21.140;2023-07-02T10:04:58;4.10;;;1.80;;
64459;SDS011;50828;53.756;21.140;2023-07-02T10:10:07;3.40;;;2.00;;
64459;SDS011;50828;53.756;21.140;2023-07-02T10:15:23;3.50;;;2.30;;
64459;SDS011;50828;53.756;21.140;2023-07-02T10:20:35;3.60;;;2.20;;
64459;SDS011;50828;53.756;21.140;2023-07-02T10:25:43;4.60;;;2.40;;
64459;SDS011;50828;53.756;21.140;2023-07-02T10:30:52;4.70;;;2.00;;
64459;SDS011;50828;53.756;21.140;2023-07-02T10:36:01;3.30;;;2.50;;
64459;SDS011;50828;53.756;21.140;2023-07-02T10:41:10;6.50;;;2.10;;
64459;SDS011;50828;53.756;21.140;2023-07-02T10:46:20;3.50;;;2.20;;
64459;SDS011;50828;53.756;21.140;2023-07-02T10:51:27;3.20;;;2.00;;
64459;SDS011;50828;53.756;21.140;2023-07-02T10:56:35;3.80;;;2.00;;
64459;SDS011;50828;53.756;21.140;2023-07-02T11:01:43;3.10;;;2.10;;
64459;SDS011;50828;53.756;21.140;2023-07-02T11:06:57;5.50;;;2.40;;
64459;SDS011;50828;53.756;21.140;2023-07-02T11:12:06;4.80;;;2.40;;
64459;SDS011;50828;53.756;21.140;2023-07-02T11:17:15;3.80;;;2.10;;
64459;SDS011;50828;53.756;21.140;2023-07-02T11:22:34;3.40;;;2.20;;
64459;SDS011;50828;53.756;21.140;2023-07-02T11:32:49;3.90;;;2.60;;
64459;SDS011;50828;53.756;21.140;2023-07-02T11:37:58;7.10;;;2.30;;
64459;SDS011;50828;53.756;21.140;2023-07-02T11:43:07;7.10;;;2.60;;
64459;SDS011;50828;53.756;21.140;2023-07-02T11:48:14;6.20;;;2.60;;
64459;SDS011;50828;53.756;21.140;2023-07-02T11:53:22;6.90;;;2.60;;
64459;SDS011;50828;53.756;21.140;2023-07-02T11:58:30;5.80;;;2.40;;
64459;SDS011;50828;53.756;21.140;2023-07-02T12:03:38;5.00;;;2.00;;
64459;SDS011;50828;53.756;21.140;2023-07-02T12:08:50;6.70;;;2.40;;
64459;SDS011;50828;53.756;21.140;2023-07-02T12:13:58;6.10;;;2.40;;
64459;SDS011;50828;53.756;21.140;2023-07-02T12:19:06;5.80;;;2.20;;
64459;SDS011;50828;53.756;21.140;2023-07-02T12:24:14;3.90;;;2.30;;
64459;SDS011;50828;53.756;21.140;2023-07-02T12:29:22;4.80;;;2.30;;
64459;SDS011;50828;53.756;21.140;2023-07-02T12:34:30;4.40;;;2.40;;
64459;SDS011;50828;53.756;21.140;2023-07-02T12:39:38;5.00;;;2.20;;
64459;SDS011;50828;53.756;21.140;2023-07-02T12:44:46;4.70;;;2.20;;
64459;SDS011;50828;53.756;21.140;2023-07-02T12:49:55;6.40;;;2.20;;
64459;SDS011;50828;53.756;21.140;2023-07-02T12:55:03;5.00;;;2.20;;
64459;SDS011;50828;53.756;21.140;2023-07-02T13:00:13;7.40;;;2.30;;
64459;SDS011;50828;53.756;21.140;2023-07-02T13:05:22;5.00;;;1.80;;
64459;SDS011;50828;53.756;21.140;2023-07-02T13:10:30;5.70;;;2.30;;
64459;SDS011;50828;53.756;21.140;2023-07-02T13:15:39;5.90;;;1.90;;
64459;SDS011;50828;53.756;21.140;2023-07-02T13:20:48;8.30;;;2.10;;
64459;SDS011;50828;53.756;21.140;2023-07-02T13:25:57;7.50;;;2.20;;
64459;SDS011;50828;53.756;21.140;2023-07-02T13:31:05;4.40;;;2.00;;
64459;SDS011;50828;53.756;21.140;2023-07-02T13:36:14;4.50;;;2.40;;
64459;SDS011;50828;53.756;21.140;2023-07-02T13:41:22;5.30;;;2.30;;
64459;SDS011;50828;53.756;21.140;2023-07-02T13:46:30;6.20;;;2.30;;
64459;SDS011;50828;53.756;21.140;2023-07-02T13:51:37;8.90;;;3.20;;
64459;SDS011;50828;53.756;21.140;2023-07-02T13:56:46;6.40;;;2.20;;
64459;SDS011;50828;53.756;21.140;2023-07-02T14:01:53;4.70;;;2.20;;
64459;SDS011;50828;53.756;21.140;2023-07-02T14:07:02;5.40;;;2.40;;
64459;SDS011;50828;53.756;21.140;2023-07-02T14:12:11;7.90;;;2.20;;
64459;SDS011;50828;53.756;21.140;2023-07-02T14:17:18;8.00;;;2.70;;
64459;SDS011;50828;53.756;21.140;2023-07-02T14:22:29;6.20;;;3.10;;
64459;SDS011;50828;53.756;21.140;2023-07-02T14:27:37;8.20;;;3.00;;
64459;SDS011;50828;53.756;21.140;2023-07-02T14:32:49;9.30;;;2.90;;
64459;SDS011;50828;53.756;21.140;2023-07-02T14:37:57;6.20;;;2.90;;
64459;SDS011;50828;53.756;21.140;2023-07-02T14:43:06;5.40;;;2.70;;
64459;SDS011;50828;53.756;21.140;2023-07-02T14:48:14;6.80;;;2.90;;
64459;SDS011;50828;53.756;21.140;2023-07-02T14:53:22;6.00;;;3.10;;
64459;SDS011;50828;53.756;21.140;2023-07-02T14:58:31;7.20;;;3.00;;
64459;SDS011;50828;53.756;21.140;2023-07-02T15:03:38;9.80;;;3.30;;
64459;SDS011;50828;53.756;21.140;2023-07-02T15:08:47;8.10;;;2.80;;
64459;SDS011;50828;53.756;21.140;2023-07-02T15:13:55;4.70;;;2.40;;
64459;SDS011;50828;53.756;21.140;2023-07-02T15:19:03;4.30;;;3.00;;
64459;SDS011;50828;53.756;21.140;2023-07-02T15:24:10;5.10;;;2.80;;
64459;SDS011;50828;53.756;21.140;2023-07-02T15:29:19;6.50;;;2.80;;
64459;SDS011;50828;53.756;21.140;2023-07-02T15:34:27;10.80;;;2.80;;
64459;SDS011;50828;53.756;21.140;2023-07-02T15:39:34;5.90;;;2.90;;
64459;SDS011;50828;53.756;21.140;2023-07-02T15:44:42;5.20;;;2.60;;
64459;SDS011;50828;53.756;21.140;2023-07-02T15:49:51;7.00;;;4.20;;
64459;SDS011;50828;53.756;21.140;2023-07-02T15:54:58;5.90;;;3.30;;
64459;SDS011;50828;53.756;21.140;2023-07-02T16:00:07;5.00;;;3.00;;
64459;SDS011;50828;53.756;21.140;2023-07-02T16:05:17;7.90;;;2.80;;
64459;SDS011;50828;53.756;21.140;2023-07-02T16:10:25;9.70;;;3.10;;
64459;SDS011;50828;53.756;21.140;2023-07-02T16:15:35;8.80;;;2.90;;
64459;SDS011;50828;53.756;21.140;2023-07-02T16:20:53;5.90;;;3.10;;
64459;SDS011;50828;53.756;21.140;2023-07-02T16:26:02;8.30;;;2.70;;
64459;SDS011;50828;53.756;21.140;2023-07-02T16:31:11;5.10;;;2.80;;
64459;SDS011;50828;53.756;21.140;2023-07-02T16:36:22;11.60;;;3.10;;
64459;SDS011;50828;53.756;21.140;2023-07-02T16:41:30;5.50;;;2.50;;
64459;SDS011;50828;53.756;21.140;2023-07-02T16:46:40;4.80;;;3.00;;
64459;SDS011;50828;53.756;21.140;2023-07-02T16:51:48;7.80;;;3.20;;
64459;SDS011;50828;53.756;21.140;2023-07-02T16:56:58;6.30;;;3.10;;
64459;SDS011;50828;53.756;21.140;2023-07-02T17:02:07;8.70;;;2.90;;
64459;SDS011;50828;53.756;21.140;2023-07-02T17:07:15;5.10;;;2.90;;
64459;SDS011;50828;53.756;21.140;2023-07-02T17:12:23;7.30;;;2.60;;
64459;SDS011;50828;53.756;21.140;2023-07-02T17:17:32;6.60;;;3.20;;
64459;SDS011;50828;53.756;21.140;2023-07-02T17:22:40;7.00;;;2.70;;
64459;SDS011;50828;53.756;21.140;2023-07-02T17:27:48;5.70;;;2.90;;
64459;SDS011;50828;53.756;21.140;2023-07-02T17:32:56;6.00;;;2.80;;
64459;SDS011;50828;53.756;21.140;2023-07-02T17:38:05;13.00;;;2.70;;
64459;SDS011;50828;53.756;21.140;2023-07-02T17:43:12;6.40;;;2.50;;
64459;SDS011;50828;53.756;21.140;2023-07-02T17:48:20;5.90;;;3.00;;
64459;SDS011;50828;53.756;21.140;2023-07-02T17:53:30;6.50;;;3.20;;
64459;SDS011;50828;53.756;21.140;2023-07-02T17:58:37;6.30;;;3.10;;
64459;SDS011;50828;53.756;21.140;2023-07-02T18:03:45;5.90;;;3.20;;
64459;SDS011;50828;53.756;21.140;2023-07-02T18:08:53;7.20;;;4.00;;
64459;SDS011;50828;53.756;21.140;2023-07-02T18:14:02;12.10;;;4.20;;
64459;SDS011;50828;53.756;21.140;2023-07-02T18:19:10;10.90;;;4.30;;
64459;SDS011;50828;53.756;21.140;2023-07-02T18:24:18;9.40;;;3.30;;
64459;SDS011;50828;53.756;21.140;2023-07-02T18:29:26;6.30;;;3.10;;
64459;SDS011;50828;53.756;21.140;2023-07-02T18:34:35;7.80;;;3.90;;
64459;SDS011;50828;53.756;21.140;2023-07-02T18:39:44;8.30;;;3.10;;
64459;SDS011;50828;53.756;21.140;2023-07-02T18:44:53;8.30;;;3.70;;
64459;SDS011;50828;53.756;21.140;2023-07-02T18:50:01;9.70;;;3.20;;
64459;SDS011;50828;53.756;21.140;2023-07-02T18:55:10;10.30;;;4.50;;
64459;SDS011;50828;53.756;21.140;2023-07-02T19:00:18;9.50;;;3.60;;
64459;SDS011;50828;53.756;21.140;2023-07-02T19:05:26;6.70;;;3.20;;
64459;SDS011;50828;53.756;21.140;2023-07-02T19:10:33;10.30;;;3.50;;
64459;SDS011;50828;53.756;21.140;2023-07-02T19:15:41;7.30;;;2.80;;
64459;SDS011;50828;53.756;21.140;2023-07-02T19:20:49;9.70;;;3.10;;
64459;SDS011;50828;53.756;21.140;2023-07-02T19:25:57;5.70;;;3.00;;
64459;SDS011;50828;53.756;21.140;2023-07-02T19:31:05;8.00;;;2.80;;
64459;SDS011;50828;53.756;21.140;2023-07-02T19:36:13;8.10;;;3.20;;
64459;SDS011;50828;53.756;21.140;2023-07-02T19:41:20;7.30;;;3.50;;
64459;SDS011;50828;53.756;21.140;2023-07-02T19:46:28;5.30;;;3.20;;
64459;SDS011;50828;53.756;21.140;2023-07-02T19:51:36;6.40;;;3.50;;
64459;SDS011;50828;53.756;21.140;2023-07-02T19:56:51;7.20;;;3.30;;
64459;SDS011;50828;53.756;21.140;2023-07-02T20:02:01;7.10;;;3.00;;
64459;SDS011;50828;53.756;21.140;2023-07-02T20:07:09;8.90;;;3.80;;
64459;SDS011;50828;53.756;21.140;2023-07-02T20:12:19;9.80;;;3.80;;
64459;SDS011;50828;53.756;21.140;2023-07-02T20:17:32;7.50;;;3.20;;
64459;SDS011;50828;53.756;21.140;2023-07-02T20:22:40;8.70;;;3.70;;
64459;SDS011;50828;53.756;21.140;2023-07-02T20:27:51;8.60;;;3.70;;
64459;SDS011;50828;53.756;21.140;2023-07-02T20:32:58;6.60;;;3.40;;
64459;SDS011;50828;53.756;21.140;2023-07-02T20:38:06;7.60;;;3.70;;
64459;SDS011;50828;53.756;21.140;2023-07-02T20:43:16;9.00;;;3.60;;
64459;SDS011;50828;53.756;21.140;2023-07-02T20:48:25;9.00;;;3.80;;
64459;SDS011;50828;53.756;21.140;2023-07-02T20:53:33;10.70;;;3.60;;
64459;SDS011;50828;53.756;21.140;2023-07-02T20:58:41;8.20;;;3.30;;
64459;SDS011;50828;53.756;21.140;2023-07-02T21:03:48;7.50;;;3.80;;
64459;SDS011;50828;53.756;21.140;2023-07-02T21:08:57;12.60;;;4.70;;
64459;SDS011;50828;53.756;21.140;2023-07-02T21:14:05;12.00;;;4.00;;
64459;SDS011;50828;53.756;21.140;2023-07-02T21:19:12;11.30;;;3.60;;
64459;SDS011;50828;53.756;21.140;2023-07-02T21:24:20;9.80;;;3.10;;
64459;SDS011;50828;53.756;21.140;2023-07-02T21:29:28;9.90;;;3.60;;
64459;SDS011;50828;53.756;21.140;2023-07-02T21:34:35;9.70;;;3.50;;
64459;SDS011;50828;53.756;21.140;2023-07-02T21:39:45;7.60;;;3.60;;
64459;SDS011;50828;53.756;21.140;2023-07-02T21:44:52;11.40;;;4.00;;
64459;SDS011;50828;53.756;21.140;2023-07-02T21:50:00;8.80;;;3.60;;
64459;SDS011;50828;53.756;21.140;2023-07-02T21:55:08;6.30;;;3.50;;
64459;SDS011;50828;53.756;21.140;2023-07-02T22:00:17;6.60;;;3.30;;
64459;SDS011;50828;53.756;21.140;2023-07-02T22:05:28;6.70;;;3.40;;
64459;SDS011;50828;53.756;21.140;2023-07-02T22:10:35;8.30;;;3.70;;
64459;SDS011;50828;53.756;21.140;2023-07-02T22:15:43;11.00;;;3.90;;
64459;SDS011;50828;53.756;21.140;2023-07-02T22:20:51;7.40;;;3.50;;
64459;SDS011;50828;53.756;21.140;2023-07-02T22:25:59;9.40;;;3.40;;
64459;SDS011;50828;53.756;21.140;2023-07-02T22:31:06;10.20;;;3.80;;
64459;SDS011;50828;53.756;21.140;2023-07-02T22:36:14;9.90;;;3.70;;
64459;SDS011;50828;53.756;21.140;2023-07-02T22:41:21;9.00;;;3.50;;
64459;SDS011;50828;53.756;21.140;2023-07-02T22:46:29;7.10;;;3.80;;
64459;SDS011;50828;53.756;21.140;2023-07-02T22:51:37;11.10;;;3.50;;
64459;SDS011;50828;53.756;21.140;2023-07-02T22:56:45;10.30;;;3.60;;
64459;SDS011;50828;53.756;21.140;2023-07-02T23:01:52;9.20;;;4.20;;
64459;SDS011;50828;53.756;21.140;2023-07-02T23:07:00;9.90;;;3.80;;
64459;SDS011;50828;53.756;21.140;2023-07-02T23:12:10;5.80;;;3.40;;
64459;SDS011;50828;53.756;21.140;2023-07-02T23:17:17;11.00;;;3.80;;
64459;SDS011;50828;53.756;21.140;2023-07-02T23:22:27;8.30;;;3.80;;
64459;SDS011;50828;53.756;21.140;2023-07-02T23:27:35;12.10;;;4.90;;
64459;SDS011;50828;53.756;21.140;2023-07-02T23:32:44;10.10;;;4.30;;
64459;SDS011;50828;53.756;21.140;2023-07-02T23:37:54;10.80;;;4.30;;
64459;SDS011;50828;53.756;21.140;2023-07-02T23:43:02;10.50;;;4.30;;
64459;SDS011;50828;53.756;21.140;2023-07-02T23:48:09;8.10;;;3.90;;
64459;SDS011;50828;53.756;21.140;2023-07-02T23:53:17;8.30;;;3.50;;
64459;SDS011;50828;53.756;21.140;2023-07-02T23:58:24;8.30;;;4.00;;
